Time;durP1;ratioP1;P1;durP2;ratioP2;P2;SDS_P1;SDS_P2;PMS_P1;PMS_P2;Temp;Humidity;BMP_temperature;BMP_pressure;BME280_temperature;BME280_humidity;BME280_pressure;Samples;Min_cycle;Max_cycle;Signal;HPM_P1;HPM_P2
2022/05/11 04:06:53;;;;;;;12.60;6.53;;;;;;;13.92;72.64;100834.56;5605775;31;76919;-54
2022/05/11 04:09:55;;;;;;;11.35;6.28;;;;;;;13.92;72.64;100834.56;5602783;31;33358;-55
2022/05/11 04:13:00;;;;;;;11.07;7.00;;;;;;;13.50;75.78;100838.88;5603211;31;34211;-55
2022/05/11 04:16:04;;;;;;;12.75;6.72;;;;;;;13.45;76.68;100838.97;5603329;31;33557;-55
2022/05/11 04:19:07;;;;;;;12.00;6.47;;;;;;;13.62;76.33;100839.28;5603173;31;34227;-55
2022/05/11 04:22:09;;;;;;;9.77;6.25;;;;;;;13.62;73.92;100841.19;5602865;31;33621;-56
2022/05/11 04:25:15;;;;;;;11.90;6.82;;;;;;;13.76;77.66;100846.66;5602407;31;33715;-55
2022/05/11 04:28:18;;;;;;;12.67;7.50;;;;;;;13.80;75.93;100850.37;5590736;31;33621;-55
2022/05/11 04:31:20;;;;;;;7.55;6.00;;;;;;;13.94;79.35;100848.56;5583683;31;34346;-55
2022/05/11 04:34:23;;;;;;;11.98;6.80;;;;;;;13.99;77.39;100850.37;5583461;31;33626;-54
2022/05/11 04:37:26;;;;;;;9.98;7.22;;;;;;;14.11;79.05;100856.16;5595044;31;33209;-56
2022/05/11 04:40:29;;;;;;;9.48;7.62;;;;;;;14.12;73.55;100865.03;5592079;31;33735;-55
2022/05/11 04:43:31;;;;;;;8.00;6.95;;;;;;;14.20;73.79;100861.66;5595852;31;34281;-55
2022/05/11 04:46:35;;;;;;;8.98;6.35;;;;;;;14.31;73.43;100852.34;5602701;31;33207;-57
2022/05/11 04:49:39;;;;;;;10.70;6.80;;;;;;;14.47;70.85;100852.88;5578917;31;33304;-55
2022/05/11 04:52:41;;;;;;;12.05;6.82;;;;;;;14.39;71.81;100862.44;5575558;32;34368;-55
2022/05/11 04:55:46;;;;;;;10.52;7.00;;;;;;;14.68;69.99;100856.09;5581469;31;33636;-55
2022/05/11 04:58:50;;;;;;;;;;;;;;;14.73;72.65;100848.69;5586189;31;33661;-54
2022/05/11 05:01:52;;;;;;;13.85;8.85;;;;;;;14.87;68.09;100858.75;5562284;32;33901;-55
2022/05/11 05:04:59;;;;;;;10.15;8.02;;;;;;;14.95;67.96;100856.16;5575661;31;34623;-55
2022/05/11 05:08:01;;;;;;;16.65;8.55;;;;;;;15.09;73.60;100860.75;5568151;32;33743;-55
2022/05/11 05:11:03;;;;;;;13.07;9.10;;;;;;;15.21;68.86;100858.38;5575985;32;34318;-55
2022/05/11 05:14:06;;;;;;;18.90;10.00;;;;;;;15.33;71.50;100860.56;5572804;32;34362;-55
2022/05/11 05:17:11;;;;;;;15.70;9.52;;;;;;;15.36;72.47;100860.78;5570307;32;34431;-56
2022/05/11 05:20:14;;;;;;;19.33;9.40;;;;;;;15.51;73.20;100860.47;5551708;32;33601;-55
2022/05/11 05:23:17;;;;;;;15.27;9.65;;;;;;;15.83;69.53;100860.69;5549658;32;34500;-57
2022/05/11 05:26:19;;;;;;;17.87;9.98;;;;;;;16.09;66.23;100864.44;5549840;32;33139;-54
2022/05/11 05:32:44;;;;;;;16.30;10.50;;;;;;;16.50;65.89;100855.34;5553129;31;33771;-55
2022/05/11 05:35:48;;;;;;;;;;;;;;;16.67;67.02;100860.06;5563208;31;33575;-55
2022/05/11 05:38:51;;;;;;;16.55;10.65;;;;;;;16.76;65.77;100860.94;5549366;31;34534;-55
2022/05/11 05:41:55;;;;;;;13.80;10.30;;;;;;;16.85;67.16;100860.97;5552174;31;34418;-55
2022/05/11 05:44:59;;;;;;;17.05;10.27;;;;;;;16.96;66.46;100865.03;5549164;31;33624;-55
2022/05/11 05:48:04;;;;;;;15.88;11.60;;;;;;;17.11;68.97;100863.81;5549925;31;34455;-55
2022/05/11 05:51:11;;;;;;;19.30;11.70;;;;;;;17.27;69.89;100862.28;5555569;31;33666;-56
2022/05/11 05:54:14;;;;;;;18.55;13.10;;;;;;;17.30;64.24;100864.37;5566975;32;32427;-55
2022/05/11 05:57:18;;;;;;;16.10;12.15;;;;;;;17.36;64.66;100865.06;5563648;31;34442;-55
2022/05/11 06:00:21;;;;;;;15.73;12.23;;;;;;;17.45;65.51;100862.34;5557392;31;33832;-56
2022/05/11 06:03:29;;;;;;;21.12;12.27;;;;;;;17.59;67.87;100863.03;5562381;31;33577;-55
2022/05/11 06:06:38;;;;;;;17.12;12.77;;;;;;;17.91;64.97;100858.31;5558170;31;33858;-57
2022/05/11 06:09:42;;;;;;;19.10;12.57;;;;;;;18.07;62.62;100852.12;5563818;31;34276;-55
2022/05/11 06:12:45;;;;;;;19.05;11.93;;;;;;;18.19;62.88;100856.91;5564940;32;33385;-56
2022/05/11 06:15:53;;;;;;;15.65;11.73;;;;;;;18.35;62.15;100859.94;5561336;32;33753;-55
2022/05/11 06:18:59;;;;;;;18.35;11.93;;;;;;;18.45;61.63;100856.09;5573189;31;33464;-55
2022/05/11 06:22:05;;;;;;;15.50;12.50;;;;;;;18.55;60.94;100856.56;5575176;31;34509;-55
2022/05/11 06:25:07;;;;;;;19.65;11.63;;;;;;;18.72;61.97;100863.91;5563513;32;33584;-55
2022/05/11 06:28:10;;;;;;;16.50;11.88;;;;;;;18.89;64.67;100856.84;5552903;31;33655;-55
2022/05/11 06:31:34;;;;;;;15.57;12.25;;;;;;;19.05;60.93;100854.37;5563330;32;34191;-56
2022/05/11 06:34:37;;;;;;;17.45;12.50;;;;;;;19.19;59.92;100857.69;5551758;31;33669;-55
2022/05/11 06:37:40;;;;;;;17.40;13.05;;;;;;;19.37;58.78;100863.81;5562945;31;33659;-55
2022/05/11 06:40:43;;;;;;;19.55;12.13;;;;;;;19.46;57.36;100854.50;5554708;31;33703;-56
2022/05/11 06:43:46;;;;;;;19.35;12.57;;;;;;;19.53;57.45;100850.47;5564355;31;33246;-56
2022/05/11 06:46:49;;;;;;;20.90;13.27;;;;;;;19.62;58.65;100848.50;5560653;32;33879;-55
2022/05/11 06:49:51;;;;;;;22.50;12.52;;;;;;;19.82;60.63;100849.69;5547927;32;33428;-55
2022/05/11 06:52:56;;;;;;;21.98;14.87;;;;;;;20.03;60.19;100852.41;5559511;31;33711;-56
2022/05/11 06:59:21;;;;;;;20.75;13.48;;;;;;;20.19;56.07;100854.19;5553112;31;33703;-55
2022/05/11 07:02:25;;;;;;;17.50;12.50;;;;;;;20.23;54.55;100845.34;5561399;32;33190;-55
2022/05/11 07:05:29;;;;;;;22.02;13.38;;;;;;;20.32;55.67;100846.84;5555218;32;33632;-56
2022/05/11 07:08:38;;;;;;;17.33;11.35;;;;;;;20.45;56.03;100850.44;5558903;31;33567;-56
2022/05/11 07:15:11;;;;;;;17.75;10.95;;;;;;;20.70;59.78;100850.56;5565968;32;33692;-56
2022/05/11 07:18:15;;;;;;;16.45;10.95;;;;;;;20.81;54.85;100848.97;5563170;31;34398;-56
2022/05/11 07:21:18;;;;;;;18.33;9.75;;;;;;;20.87;53.26;100850.34;5557804;31;33389;-56
2022/05/11 07:24:20;;;;;;;12.20;7.82;;;;;;;20.96;53.23;100848.31;5571033;31;34354;-56
2022/05/11 07:27:23;;;;;;;11.18;8.38;;;;;;;21.09;54.77;100844.47;5568266;32;33636;-55
2022/05/11 07:30:34;;;;;;;12.13;7.43;;;;;;;21.20;52.91;100836.63;5566068;32;34059;-55
2022/05/11 07:33:42;;;;;;;10.70;7.82;;;;;;;21.26;55.09;100834.50;5555820;31;33707;-56
2022/05/11 07:36:44;;;;;;;16.48;9.15;;;;;;;21.38;53.65;100837.22;5558988;31;33716;-56
2022/05/11 07:39:46;;;;;;;20.20;10.70;;;;;;;21.53;52.51;100835.75;5556402;32;33744;-55
2022/05/11 07:42:50;;;;;;;18.50;9.95;;;;;;;21.60;53.45;100833.22;5558143;32;33385;-55
2022/05/11 07:45:52;;;;;;;11.02;7.20;;;;;;;21.62;52.40;100827.41;5566669;32;33559;-56
2022/05/11 07:48:55;;;;;;;12.05;5.32;;;;;;;21.74;51.89;100830.91;5559846;32;33651;-56
2022/05/11 07:51:57;;;;;;;9.50;6.93;;;;;;;21.79;49.14;100830.69;5567040;31;34234;-55
2022/05/11 07:54:59;;;;;;;11.45;7.05;;;;;;;21.88;49.10;100832.47;5555539;31;34248;-56
2022/05/11 08:01:22;;;;;;;12.77;7.93;;;;;;;22.07;52.91;100837.31;5555544;32;34938;-55
2022/05/11 08:04:24;;;;;;;10.95;5.93;;;;;;;22.07;52.79;100832.66;5555027;32;33558;-57
2022/05/11 08:07:39;;;;;;;7.18;4.35;;;;;;;22.16;49.82;100836.06;5562275;32;33037;-56
2022/05/11 08:10:45;;;;;;;9.20;4.60;;;;;;;22.25;48.52;100831.25;5557239;31;33745;-56
2022/05/11 08:13:47;;;;;;;8.10;4.80;;;;;;;22.26;48.79;100827.37;5560867;32;34162;-56
2022/05/11 08:16:53;;;;;;;11.07;4.45;;;;;;;22.28;47.12;100832.47;5560047;32;34310;-55
2022/05/11 08:19:56;;;;;;;11.15;4.05;;;;;;;22.39;48.07;100821.84;5561802;32;33588;-56
2022/05/11 08:23:00;;;;;;;6.25;3.85;;;;;;;22.30;42.73;100827.47;5561262;32;33664;-56
2022/05/11 08:26:02;;;;;;;10.48;4.72;;;;;;;22.33;44.99;100817.78;5562213;31;33640;-56
2022/05/11 08:29:04;;;;;;;8.50;4.40;;;;;;;22.43;46.86;100818.06;5554115;31;33635;-57
2022/05/11 08:35:29;;;;;;;6.72;3.67;;;;;;;22.53;43.38;100819.50;5557837;31;34350;-56
2022/05/11 08:38:34;;;;;;;7.40;3.87;;;;;;;22.52;42.23;100813.25;5563767;31;33281;-56
2022/05/11 08:41:45;;;;;;;7.32;4.00;;;;;;;22.49;42.02;100810.41;5557526;31;33736;-56
2022/05/11 08:44:48;;;;;;;9.55;3.60;;;;;;;22.50;42.32;100812.00;5548695;31;32967;-56
2022/05/11 08:47:51;;;;;;;7.18;3.62;;;;;;;22.52;42.53;100815.19;5556777;31;34307;-55
2022/05/11 08:50:53;;;;;;;7.03;3.75;;;;;;;22.57;42.59;100816.84;5552777;31;33688;-57
2022/05/11 08:54:08;;;;;;;7.57;4.10;;;;;;;22.60;41.82;100818.88;5555874;31;33544;-55
2022/05/11 08:57:17;;;;;;;9.07;4.55;;;;;;;22.64;42.69;100822.50;5549089;32;33326;-56
2022/05/11 09:00:19;;;;;;;5.68;4.07;;;;;;;22.71;43.61;100814.47;5551572;32;34804;-56
2022/05/11 09:03:31;;;;;;;6.90;4.22;;;;;;;22.84;44.96;100815.97;5555210;31;33824;-55
2022/05/11 09:06:37;;;;;;;7.12;3.83;;;;;;;22.91;42.12;100810.72;5556171;32;33680;-55
2022/05/11 09:09:39;;;;;;;6.32;4.03;;;;;;;23.00;42.91;100810.53;5562093;31;34345;-55
2022/05/11 09:12:42;;;;;;;8.30;3.85;;;;;;;22.98;41.19;100810.13;5564352;31;33632;-56
2022/05/11 09:15:53;;;;;;;7.40;3.37;;;;;;;23.03;41.22;100807.09;5564362;32;33735;-56
2022/05/11 09:18:56;;;;;;;7.18;4.20;;;;;;;23.04;39.42;100800.47;5564281;31;33750;-56
2022/05/11 09:22:10;;;;;;;9.05;3.72;;;;;;;23.07;39.06;100801.72;5564460;32;33668;-56
2022/05/11 09:25:21;;;;;;;6.65;3.85;;;;;;;23.10;40.98;100809.22;5561981;32;33119;-56
2022/05/11 09:28:29;;;;;;;6.85;3.80;;;;;;;23.19;41.29;100804.34;5565714;31;34364;-56
2022/05/11 09:31:31;;;;;;;9.43;3.45;;;;;;;23.25;40.05;100794.75;5561312;31;33634;-58
2022/05/11 09:34:36;;;;;;;8.75;3.70;;;;;;;23.20;40.98;100806.72;5565016;32;33247;-57
2022/05/11 09:37:40;;;;;;;13.02;4.15;;;;;;;23.21;38.89;100802.03;5553818;32;34351;-57
2022/05/11 09:41:01;;;;;;;7.22;3.72;;;;;;;23.18;39.23;100797.31;5561192;31;34394;-56
2022/05/11 09:44:18;;;;;;;45.25;6.55;;;;;;;23.25;40.92;100807.63;5566625;31;33316;-57
2022/05/11 09:47:30;;;;;;;5.62;3.55;;;;;;;23.34;40.98;100810.94;5558203;31;33596;-56
2022/05/11 09:50:33;;;;;;;5.70;3.40;;;;;;;23.33;38.02;100799.22;5565546;31;34396;-55
2022/05/11 09:53:38;;;;;;;6.28;3.60;;;;;;;23.38;38.63;100795.41;5557767;31;33628;-56
2022/05/11 09:57:13;;;;;;;7.12;3.33;;;;;;;23.43;40.04;100797.88;5548550;32;33597;-57
2022/05/11 10:00:22;;;;;;;9.38;3.60;;;;;;;23.50;38.70;100798.00;5549158;32;33607;-56
2022/05/11 10:03:29;;;;;;;6.25;3.50;;;;;;;23.53;39.48;100793.78;5551260;31;33929;-55
2022/05/11 10:06:36;;;;;;;6.60;3.28;;;;;;;23.58;37.52;100793.50;5559006;32;33671;-56
2022/05/11 10:09:50;;;;;;;9.90;4.35;;;;;;;23.57;38.55;100792.69;5558627;32;34346;-56
2022/05/11 10:12:56;;;;;;;7.70;3.40;;;;;;;23.73;38.95;100792.66;5563982;31;34425;-56
2022/05/11 10:23:23;;;;;;;6.25;3.55;;;;;;;23.74;36.01;100782.50;5554116;32;33641;-56
2022/05/11 10:26:49;;;;;;;6.00;3.50;;;;;;;23.75;35.92;100787.62;5567996;32;33195;-56
2022/05/11 10:30:06;;;;;;;6.10;3.35;;;;;;;23.86;39.61;100791.38;5548388;32;34415;-56
2022/05/11 10:33:21;;;;;;;8.20;3.50;;;;;;;23.92;39.26;100789.16;5564507;32;33451;-57
2022/05/11 10:36:40;;;;;;;7.62;3.28;;;;;;;23.91;39.55;100793.84;5564237;32;34423;-56
2022/05/11 10:40:05;;;;;;;6.45;3.58;;;;;;;23.85;37.84;100787.06;5570842;31;33907;-57
2022/05/11 10:43:39;;;;;;;9.23;3.20;;;;;;;23.73;36.99;100784.47;5552023;32;33596;-56
2022/05/11 10:47:10;;;;;;;5.82;3.22;;;;;;;23.74;35.58;100779.78;5556766;31;33671;-56
2022/05/11 10:50:34;;;;;;;4.55;3.10;;;;;;;23.83;36.27;100766.66;5555870;32;33779;-55
2022/05/11 10:53:53;;;;;;;4.45;3.00;;;;;;;23.93;37.29;100771.56;5563994;32;33756;-56
2022/05/11 10:57:07;;;;;;;5.22;3.33;;;;;;;24.04;36.22;100763.53;5557613;31;33639;-56
2022/05/11 11:00:13;;;;;;;4.62;3.30;;;;;;;24.05;36.04;100771.41;5557968;32;33104;-55
2022/05/11 11:03:41;;;;;;;6.72;3.33;;;;;;;24.09;36.91;100769.53;5564697;31;33774;-56
2022/05/11 11:07:25;;;;;;;8.45;3.70;;;;;;;24.16;35.71;100760.66;5565846;31;32314;-56
2022/05/11 11:10:40;;;;;;;9.15;3.53;;;;;;;24.21;37.77;100743.94;5553766;32;34322;-56
2022/05/11 11:14:00;;;;;;;5.87;4.27;;;;;;;24.23;35.93;100754.50;5560678;32;34410;-57
2022/05/11 11:17:25;;;;;;;7.87;3.40;;;;;;;24.24;36.27;100750.62;5557839;32;34478;-56
2022/05/11 11:20:31;;;;;;;4.77;3.20;;;;;;;24.34;34.47;100750.81;5554932;31;33239;-56
2022/05/11 11:23:37;;;;;;;9.05;3.60;;;;;;;24.41;36.35;100749.41;5556614;32;33808;-55
2022/05/11 11:26:45;;;;;;;9.73;3.85;;;;;;;24.46;36.76;100749.88;5568210;31;34277;-55
2022/05/11 11:30:13;;;;;;;6.20;3.22;;;;;;;24.51;37.46;100746.06;5573625;31;34420;-56
2022/05/11 11:33:17;;;;;;;5.43;3.45;;;;;;;24.57;36.12;100744.59;5568310;32;33869;-56
2022/05/11 11:36:31;;;;;;;6.37;3.65;;;;;;;24.65;34.84;100745.50;5568377;32;34321;-56
2022/05/11 11:39:52;;;;;;;5.72;3.30;;;;;;;24.83;36.02;100744.63;5568656;32;33729;-55
2022/05/11 11:42:55;;;;;;;12.15;3.17;;;;;;;24.83;35.68;100722.69;5559767;31;34303;-56
2022/05/11 11:46:00;;;;;;;10.82;3.53;;;;;;;24.93;33.22;100723.19;5577787;31;33655;-55
2022/05/11 11:49:33;;;;;;;5.82;3.58;;;;;;;25.02;33.44;100721.78;5568321;32;33954;-56
2022/05/11 11:52:44;;;;;;;6.50;2.95;;;;;;;25.03;33.69;100714.31;5565917;32;33205;-56
2022/05/11 11:55:47;;;;;;;9.13;3.83;;;;;;;25.08;33.57;100712.06;5567600;32;34432;-56
2022/05/11 11:59:29;;;;;;;6.10;3.40;;;;;;;25.08;35.33;100719.50;5570536;31;34470;-56
2022/05/11 12:02:34;;;;;;;11.10;3.33;;;;;;;25.05;34.08;100703.78;5560827;31;33054;-56
2022/05/11 12:05:47;;;;;;;6.47;3.50;;;;;;;24.99;35.79;100700.56;5568009;32;33614;-55
2022/05/11 12:15:38;;;;;;;5.53;3.20;;;;;;;24.96;35.12;100695.03;5567528;32;33786;-56
2022/05/11 12:18:43;;;;;;;6.68;3.05;;;;;;;25.01;34.51;100697.47;5568971;31;34362;-56
2022/05/11 12:21:56;;;;;;;7.15;3.25;;;;;;;25.05;34.43;100692.81;5568246;31;33915;-56
2022/05/11 12:25:09;;;;;;;6.43;3.10;;;;;;;25.10;34.35;100681.53;5567189;32;33957;-56
2022/05/11 12:28:32;;;;;;;6.97;3.47;;;;;;;25.03;34.78;100684.97;5572585;31;33661;-56
2022/05/11 12:31:35;;;;;;;5.78;3.50;;;;;;;25.05;34.23;100681.84;5568794;32;33621;-56
2022/05/11 12:34:46;;;;;;;5.70;3.45;;;;;;;25.00;36.95;100682.97;5569464;32;33754;-55
2022/05/11 12:38:03;;;;;;;5.32;3.25;;;;;;;25.04;34.56;100674.78;5568583;32;34371;-57
2022/05/11 12:41:21;;;;;;;6.50;3.00;;;;;;;25.07;33.57;100683.06;5574241;31;34433;-56
2022/05/11 12:44:30;;;;;;;6.37;3.12;;;;;;;25.10;33.25;100673.31;5569837;32;33191;-56
2022/05/11 12:47:45;;;;;;;7.68;3.58;;;;;;;25.25;33.38;100669.59;5569794;32;33749;-56
2022/05/11 12:50:58;;;;;;;4.95;3.55;;;;;;;25.25;31.90;100666.84;5570014;32;34024;-56
2022/05/11 12:54:08;;;;;;;5.72;3.22;;;;;;;25.24;32.59;100661.75;5569850;32;34328;-57
2022/05/11 12:57:17;;;;;;;9.50;4.30;;;;;;;25.27;34.44;100664.53;5570196;32;33568;-56
2022/05/11 13:00:19;;;;;;;5.70;3.30;;;;;;;25.24;34.08;100656.25;5574791;31;34331;-56
2022/05/11 13:03:25;;;;;;;7.03;3.25;;;;;;;25.28;32.53;100648.84;5574474;31;33729;-56
2022/05/11 13:06:34;;;;;;;7.87;3.80;;;;;;;25.29;33.35;100645.72;5569753;32;33563;-56
2022/05/11 13:09:47;;;;;;;8.35;4.07;;;;;;;25.27;35.30;100653.56;5570031;32;33592;-55
2022/05/11 13:12:53;;;;;;;6.00;3.37;;;;;;;25.31;32.18;100651.66;5569745;32;34130;-57
2022/05/11 13:16:05;;;;;;;7.62;3.58;;;;;;;25.38;33.15;100645.44;5589726;31;33417;-56
2022/05/11 13:19:32;;;;;;;9.65;3.33;;;;;;;25.39;32.30;100638.78;5582929;31;33662;-55
2022/05/11 13:22:37;;;;;;;5.93;3.30;;;;;;;25.42;32.97;100640.78;5572332;31;33876;-56
2022/05/11 13:25:42;;;;;;;5.03;3.15;;;;;;;25.52;32.94;100631.09;5589543;31;34333;-56
2022/05/11 13:29:01;;;;;;;5.95;3.00;;;;;;;25.55;34.04;100625.62;5588972;31;33789;-56
2022/05/11 13:32:06;;;;;;;6.15;3.10;;;;;;;25.56;32.62;100618.19;5585834;31;33809;-56
2022/05/11 13:35:29;;;;;;;;;;;;;;;25.61;34.25;100626.09;5575170;31;33860;-56
2022/05/11 13:38:31;;;;;;;8.02;3.25;;;;;;;25.61;33.34;100609.63;5556233;31;34653;-55
2022/05/11 13:41:40;;;;;;;5.80;3.37;;;;;;;25.61;33.62;100609.63;5570100;31;33570;-56
2022/05/11 13:44:48;;;;;;;10.70;3.58;;;;;;;25.55;31.80;100606.44;5572398;31;33969;-56
2022/05/11 13:48:11;;;;;;;41.03;6.68;;;;;;;25.54;32.72;100602.09;5569141;32;33743;-56
2022/05/11 13:51:19;;;;;;;9.15;3.30;;;;;;;25.53;33.54;100597.78;5569613;31;34238;-55
2022/05/11 13:54:42;;;;;;;6.45;3.45;;;;;;;25.65;31.87;100604.16;5579079;31;33388;-56
2022/05/11 13:57:44;;;;;;;6.45;3.28;;;;;;;25.65;34.83;100599.47;5583908;31;33740;-56
2022/05/11 14:00:46;;;;;;;8.00;3.55;;;;;;;25.62;32.58;100589.25;5568976;31;34418;-56
2022/05/11 14:03:51;;;;;;;9.48;3.75;;;;;;;25.61;32.82;100590.41;5569098;32;33625;-56
2022/05/11 14:07:02;;;;;;;5.25;3.28;;;;;;;25.59;32.86;100583.72;5569327;32;34334;-56
2022/05/11 14:10:05;;;;;;;5.85;3.72;;;;;;;25.54;32.41;100582.91;5585146;31;33650;-56
2022/05/11 14:13:08;;;;;;;6.37;3.10;;;;;;;25.58;33.47;100587.62;5570890;31;33794;-57
2022/05/11 14:16:13;;;;;;;4.93;3.33;;;;;;;25.55;32.59;100583.69;5569133;32;33418;-56
2022/05/11 14:19:16;;;;;;;6.90;3.70;;;;;;;25.50;32.82;100575.81;5568088;31;33911;-56
2022/05/11 14:22:18;;;;;;;13.80;3.70;;;;;;;25.52;33.89;100578.94;5568802;32;33622;-55
2022/05/11 14:25:20;;;;;;;8.48;3.60;;;;;;;25.62;33.38;100578.25;5587871;31;34097;-56
2022/05/11 14:28:43;;;;;;;8.75;3.50;;;;;;;25.66;35.34;100579.09;5588728;31;33338;-56
2022/05/11 14:31:47;;;;;;;7.15;3.25;;;;;;;25.63;34.69;100573.56;5576540;31;33915;-56
2022/05/11 14:34:49;;;;;;;6.70;3.42;;;;;;;25.61;34.42;100568.44;5577221;31;34403;-55
2022/05/11 14:37:52;;;;;;;7.07;3.60;;;;;;;25.60;33.97;100569.63;5584781;31;34272;-56
2022/05/11 14:41:00;;;;;;;8.52;3.50;;;;;;;25.55;32.36;100561.72;5573441;31;34409;-55
2022/05/11 14:44:02;;;;;;;6.20;3.35;;;;;;;25.48;33.37;100565.19;5572002;31;33729;-56
2022/05/11 14:47:05;;;;;;;26.73;5.55;;;;;;;25.45;34.40;100565.94;5568904;32;33882;-56
2022/05/11 14:50:12;;;;;;;5.47;3.35;;;;;;;25.47;32.76;100560.09;5568145;32;33799;-57
2022/05/11 14:53:15;;;;;;;4.07;2.97;;;;;;;25.47;33.25;100565.56;5569184;31;34528;-56
2022/05/11 14:56:19;;;;;;;5.50;3.28;;;;;;;25.50;33.71;100564.81;5581897;31;34360;-56
2022/05/11 15:02:45;;;;;;;6.12;3.25;;;;;;;25.56;33.49;100557.81;5588777;31;33703;-56
2022/05/11 15:05:48;;;;;;;6.07;3.50;;;;;;;25.50;33.73;100557.38;5588528;31;34319;-55
2022/05/11 15:08:51;;;;;;;9.02;3.08;;;;;;;25.48;32.09;100553.41;5588364;31;34299;-56
2022/05/11 15:15:17;;;;;;;24.77;4.60;;;;;;;25.44;33.88;100558.87;5588642;31;33308;-56
2022/05/11 15:18:22;;;;;;;7.20;3.40;;;;;;;25.41;34.20;100553.34;5588541;31;33990;-56
2022/05/11 15:21:24;;;;;;;7.43;3.60;;;;;;;25.40;34.14;100551.78;5588468;31;34380;-56
2022/05/11 15:24:27;;;;;;;6.43;3.40;;;;;;;25.39;33.74;100550.97;5588599;31;33657;-56
